Willcox, AZ (85643)

6:23 AM MST on August 27, 2016 (GMT -0700)
14 miles North West of Willcox | | Change Station

Elev 4275 ft 32.38 °N, 109.95 °W | Updated 26 seconds ago

Clear
Clear
58.3 °F
Feels Like 58.3 °F
N
0.0
Wind Variable Wind from SSE
Gusts 0.0 mph

Today
High -- | Low -- °F
--% Chance of Precip.
Yesterday
High -- | Low -- °F
Precip. -- in
Pressure 29.91 in
Visibility 10.0 miles
Clouds Clear
Dew Point 56 °F
Humidity 91%
Rainfall 0.00 in
Snow Depth Not available.
5:51 AM 6:49 PM
Waning Crescent, 24% visible
METAR KSAD 271251Z AUTO 10004KT 10SM CLR 19/13 A3003 RMK AO2 SLP126 T01890128
Pressure 29.91 in
Visibility 10.0 miles
Clouds Clear
Dew Point 56 °F
Humidity 91%
Rainfall 0.00 in
Snow Depth Not available.
5:51 AM 6:49 PM
Waning Crescent, 24% visible
METAR KSAD 271251Z AUTO 10004KT 10SM CLR 19/13 A3003 RMK AO2 SLP126 T01890128

10-Day Weather Forecast

Almanac

Astronomy

Aug. 27, 2016 Rise Set
Actual Time
Civil Twilight
Nautical Twilight
Astronomical Twilight
Moon
Length of Visible Light
Length of Day
Tomorrow will be .
, % of the Moon is Illuminated

Today's Extremes

State Highs State Lows

Community

WunderPhotos

Upload Photos

1,935,337 photos uploaded!

WunderBlog® & News

Nearby

Air Quality

  Air Quality AQ Index Pollutant
Not available.

Snow Depth

Station Depth Elevation

Earthquake Activity

City Distance Mag. Time & Date
Minimum magnitude displayed is 2.5.

Coastal Water Temperatures

Place Temperature

Stations

Nearby Weather Stations

Station Location Temp. Windchill Dew Point Humidity Wind Precip. Elev Updated Type
                   

Watches & Warnings

There are currently no watches in effect.